sensor_id;sensor_type;location;lat;lon;timestamp;P1;durP1;ratioP1;P2;durP2;ratioP2
82632;SDS011;72302;51.444;3.582;2023-09-08T00:01:48;9.95;;;6.95;;
82632;SDS011;72302;51.444;3.582;2023-09-08T00:04:14;10.50;;;6.67;;
82632;SDS011;72302;51.444;3.582;2023-09-08T00:06:39;12.30;;;7.35;;
82632;SDS011;72302;51.444;3.582;2023-09-08T00:09:05;10.45;;;6.80;;
82632;SDS011;72302;51.444;3.582;2023-09-08T00:11:30;13.15;;;7.72;;
82632;SDS011;72302;51.444;3.582;2023-09-08T00:13:55;12.00;;;6.43;;
82632;SDS011;72302;51.444;3.582;2023-09-08T00:16:21;13.18;;;8.05;;
82632;SDS011;72302;51.444;3.582;2023-09-08T00:18:46;9.95;;;6.55;;
82632;SDS011;72302;51.444;3.582;2023-09-08T00:21:11;12.13;;;7.70;;
82632;SDS011;72302;51.444;3.582;2023-09-08T00:23:37;13.27;;;8.27;;
82632;SDS011;72302;51.444;3.582;2023-09-08T00:26:02;21.25;;;9.93;;
82632;SDS011;72302;51.444;3.582;2023-09-08T00:28:27;15.95;;;9.27;;
82632;SDS011;72302;51.444;3.582;2023-09-08T00:30:53;19.07;;;9.27;;
82632;SDS011;72302;51.444;3.582;2023-09-08T00:33:19;13.10;;;8.48;;
82632;SDS011;72302;51.444;3.582;2023-09-08T00:35:45;14.65;;;9.05;;
82632;SDS011;72302;51.444;3.582;2023-09-08T00:38:13;13.75;;;8.48;;
82632;SDS011;72302;51.444;3.582;2023-09-08T00:40:38;13.90;;;7.23;;
82632;SDS011;72302;51.444;3.582;2023-09-08T00:43:03;15.18;;;8.55;;
82632;SDS011;72302;51.444;3.582;2023-09-08T00:45:29;16.08;;;7.97;;
82632;SDS011;72302;51.444;3.582;2023-09-08T00:47:54;13.25;;;7.65;;
82632;SDS011;72302;51.444;3.582;2023-09-08T00:50:19;13.32;;;9.18;;
82632;SDS011;72302;51.444;3.582;2023-09-08T00:52:45;15.25;;;8.80;;
82632;SDS011;72302;51.444;3.582;2023-09-08T00:55:10;17.90;;;10.23;;
82632;SDS011;72302;51.444;3.582;2023-09-08T00:57:36;16.15;;;9.15;;
82632;SDS011;72302;51.444;3.582;2023-09-08T01:00:01;14.45;;;8.77;;
82632;SDS011;72302;51.444;3.582;2023-09-08T01:02:29;12.18;;;8.27;;
82632;SDS011;72302;51.444;3.582;2023-09-08T01:04:55;16.23;;;9.17;;
82632;SDS011;72302;51.444;3.582;2023-09-08T01:07:20;15.40;;;8.82;;
82632;SDS011;72302;51.444;3.582;2023-09-08T01:09:46;15.82;;;9.13;;
82632;SDS011;72302;51.444;3.582;2023-09-08T01:12:11;13.02;;;8.82;;
82632;SDS011;72302;51.444;3.582;2023-09-08T01:14:37;16.90;;;10.20;;
82632;SDS011;72302;51.444;3.582;2023-09-08T01:17:03;15.13;;;9.60;;
82632;SDS011;72302;51.444;3.582;2023-09-08T01:19:29;16.20;;;9.70;;
82632;SDS011;72302;51.444;3.582;2023-09-08T01:27:23;16.73;;;9.25;;
82632;SDS011;72302;51.444;3.582;2023-09-08T01:29:49;16.85;;;10.45;;
82632;SDS011;72302;51.444;3.582;2023-09-08T01:32:15;16.65;;;10.55;;
82632;SDS011;72302;51.444;3.582;2023-09-08T01:34:42;17.00;;;9.52;;
82632;SDS011;72302;51.444;3.582;2023-09-08T01:37:08;16.58;;;10.15;;
82632;SDS011;72302;51.444;3.582;2023-09-08T01:39:34;17.60;;;9.27;;
82632;SDS011;72302;51.444;3.582;2023-09-08T01:42:00;14.20;;;9.60;;
82632;SDS011;72302;51.444;3.582;2023-09-08T01:44:26;15.77;;;9.18;;
82632;SDS011;72302;51.444;3.582;2023-09-08T01:46:51;17.35;;;10.38;;
82632;SDS011;72302;51.444;3.582;2023-09-08T01:49:21;17.60;;;8.90;;
82632;SDS011;72302;51.444;3.582;2023-09-08T01:51:46;18.03;;;10.17;;
82632;SDS011;72302;51.444;3.582;2023-09-08T01:54:12;15.88;;;10.98;;
82632;SDS011;72302;51.444;3.582;2023-09-08T01:56:37;14.45;;;9.07;;
82632;SDS011;72302;51.444;3.582;2023-09-08T01:59:02;14.50;;;9.13;;
82632;SDS011;72302;51.444;3.582;2023-09-08T02:01:27;15.85;;;9.05;;
82632;SDS011;72302;51.444;3.582;2023-09-08T02:03:54;16.33;;;10.57;;
82632;SDS011;72302;51.444;3.582;2023-09-08T02:06:19;16.88;;;10.65;;
82632;SDS011;72302;51.444;3.582;2023-09-08T02:08:44;15.30;;;9.77;;
82632;SDS011;72302;51.444;3.582;2023-09-08T02:11:10;15.20;;;9.88;;
82632;SDS011;72302;51.444;3.582;2023-09-08T02:13:36;17.02;;;10.80;;
82632;SDS011;72302;51.444;3.582;2023-09-08T02:16:01;16.52;;;10.75;;
82632;SDS011;72302;51.444;3.582;2023-09-08T02:18:27;14.05;;;9.75;;
82632;SDS011;72302;51.444;3.582;2023-09-08T02:20:53;16.27;;;11.60;;
82632;SDS011;72302;51.444;3.582;2023-09-08T02:23:18;15.80;;;9.65;;
82632;SDS011;72302;51.444;3.582;2023-09-08T02:25:43;20.30;;;10.85;;
82632;SDS011;72302;51.444;3.582;2023-09-08T02:28:08;16.40;;;9.60;;
82632;SDS011;72302;51.444;3.582;2023-09-08T02:30:34;23.73;;;12.00;;
82632;SDS011;72302;51.444;3.582;2023-09-08T02:32:59;17.70;;;10.70;;
82632;SDS011;72302;51.444;3.582;2023-09-08T02:35:24;19.13;;;11.10;;
82632;SDS011;72302;51.444;3.582;2023-09-08T02:37:49;17.65;;;10.35;;
82632;SDS011;72302;51.444;3.582;2023-09-08T02:40:15;18.15;;;9.77;;
82632;SDS011;72302;51.444;3.582;2023-09-08T02:42:40;19.63;;;11.38;;
82632;SDS011;72302;51.444;3.582;2023-09-08T02:45:05;15.85;;;10.30;;
82632;SDS011;72302;51.444;3.582;2023-09-08T02:47:31;17.60;;;10.10;;
82632;SDS011;72302;51.444;3.582;2023-09-08T02:49:56;20.70;;;10.20;;
82632;SDS011;72302;51.444;3.582;2023-09-08T02:52:22;15.38;;;10.27;;
82632;SDS011;72302;51.444;3.582;2023-09-08T02:54:47;20.93;;;10.87;;
82632;SDS011;72302;51.444;3.582;2023-09-08T02:57:12;19.13;;;11.63;;
82632;SDS011;72302;51.444;3.582;2023-09-08T02:59:37;16.25;;;10.10;;
82632;SDS011;72302;51.444;3.582;2023-09-08T03:02:03;16.23;;;9.90;;
82632;SDS011;72302;51.444;3.582;2023-09-08T03:04:28;24.10;;;11.77;;
82632;SDS011;72302;51.444;3.582;2023-09-08T03:06:53;19.73;;;11.07;;
82632;SDS011;72302;51.444;3.582;2023-09-08T03:09:19;20.73;;;12.25;;
82632;SDS011;72302;51.444;3.582;2023-09-08T03:11:44;20.70;;;11.77;;
82632;SDS011;72302;51.444;3.582;2023-09-08T03:14:10;22.73;;;13.50;;
82632;SDS011;72302;51.444;3.582;2023-09-08T03:16:35;23.27;;;13.63;;
82632;SDS011;72302;51.444;3.582;2023-09-08T03:19:00;23.52;;;14.50;;
82632;SDS011;72302;51.444;3.582;2023-09-08T03:21:26;22.80;;;13.45;;
82632;SDS011;72302;51.444;3.582;2023-09-08T03:23:52;24.30;;;14.77;;
82632;SDS011;72302;51.444;3.582;2023-09-08T03:26:17;30.92;;;14.85;;
82632;SDS011;72302;51.444;3.582;2023-09-08T03:28:43;24.35;;;13.98;;
82632;SDS011;72302;51.444;3.582;2023-09-08T03:31:08;24.10;;;13.45;;
82632;SDS011;72302;51.444;3.582;2023-09-08T03:33:34;27.52;;;15.57;;
82632;SDS011;72302;51.444;3.582;2023-09-08T03:36:00;25.02;;;14.23;;
82632;SDS011;72302;51.444;3.582;2023-09-08T03:38:26;23.40;;;14.65;;
82632;SDS011;72302;51.444;3.582;2023-09-08T03:40:51;23.67;;;12.82;;
82632;SDS011;72302;51.444;3.582;2023-09-08T03:43:16;22.02;;;14.95;;
82632;SDS011;72302;51.444;3.582;2023-09-08T03:45:41;19.98;;;12.40;;
82632;SDS011;72302;51.444;3.582;2023-09-08T03:48:07;18.58;;;11.60;;
82632;SDS011;72302;51.444;3.582;2023-09-08T03:50:32;23.05;;;13.13;;
82632;SDS011;72302;51.444;3.582;2023-09-08T03:52:57;24.27;;;12.90;;
82632;SDS011;72302;51.444;3.582;2023-09-08T03:55:22;20.73;;;11.57;;
82632;SDS011;72302;51.444;3.582;2023-09-08T03:57:48;24.52;;;12.68;;
82632;SDS011;72302;51.444;3.582;2023-09-08T04:00:13;19.80;;;12.37;;
82632;SDS011;72302;51.444;3.582;2023-09-08T04:02:44;19.35;;;11.00;;
82632;SDS011;72302;51.444;3.582;2023-09-08T04:05:10;22.50;;;13.00;;
82632;SDS011;72302;51.444;3.582;2023-09-08T04:07:35;20.40;;;12.85;;
82632;SDS011;72302;51.444;3.582;2023-09-08T04:10:02;22.67;;;11.93;;
82632;SDS011;72302;51.444;3.582;2023-09-08T04:12:28;24.83;;;13.07;;
82632;SDS011;72302;51.444;3.582;2023-09-08T04:14:53;20.13;;;11.70;;
82632;SDS011;72302;51.444;3.582;2023-09-08T04:17:18;21.20;;;13.68;;
82632;SDS011;72302;51.444;3.582;2023-09-08T04:19:43;20.65;;;11.80;;
82632;SDS011;72302;51.444;3.582;2023-09-08T04:22:09;22.88;;;12.85;;
82632;SDS011;72302;51.444;3.582;2023-09-08T04:24:35;20.77;;;11.82;;
82632;SDS011;72302;51.444;3.582;2023-09-08T04:27:01;23.52;;;13.82;;
82632;SDS011;72302;51.444;3.582;2023-09-08T04:29:26;21.00;;;12.65;;
82632;SDS011;72302;51.444;3.582;2023-09-08T04:31:52;23.73;;;13.02;;
82632;SDS011;72302;51.444;3.582;2023-09-08T04:34:17;24.83;;;13.53;;
82632;SDS011;72302;51.444;3.582;2023-09-08T04:36:43;20.42;;;11.98;;
82632;SDS011;72302;51.444;3.582;2023-09-08T04:39:08;20.23;;;13.35;;
82632;SDS011;72302;51.444;3.582;2023-09-08T04:41:36;21.00;;;11.18;;
82632;SDS011;72302;51.444;3.582;2023-09-08T04:44:01;26.80;;;13.85;;
82632;SDS011;72302;51.444;3.582;2023-09-08T04:46:27;20.23;;;12.30;;
82632;SDS011;72302;51.444;3.582;2023-09-08T04:48:52;22.17;;;12.57;;
82632;SDS011;72302;51.444;3.582;2023-09-08T04:51:17;20.67;;;11.63;;
82632;SDS011;72302;51.444;3.582;2023-09-08T04:53:43;23.10;;;12.43;;
82632;SDS011;72302;51.444;3.582;2023-09-08T04:56:08;20.63;;;13.02;;
82632;SDS011;72302;51.444;3.582;2023-09-08T04:58:33;24.73;;;13.37;;
82632;SDS011;72302;51.444;3.582;2023-09-08T05:00:59;22.85;;;13.02;;
82632;SDS011;72302;51.444;3.582;2023-09-08T05:03:24;25.48;;;13.55;;
82632;SDS011;72302;51.444;3.582;2023-09-08T05:05:51;22.65;;;12.27;;
82632;SDS011;72302;51.444;3.582;2023-09-08T05:08:16;20.80;;;12.43;;
82632;SDS011;72302;51.444;3.582;2023-09-08T05:10:43;22.80;;;13.07;;
82632;SDS011;72302;51.444;3.582;2023-09-08T05:13:08;26.77;;;13.52;;
82632;SDS011;72302;51.444;3.582;2023-09-08T05:15:33;24.38;;;12.90;;
82632;SDS011;72302;51.444;3.582;2023-09-08T05:17:59;22.73;;;11.95;;
82632;SDS011;72302;51.444;3.582;2023-09-08T05:20:25;22.50;;;13.20;;
82632;SDS011;72302;51.444;3.582;2023-09-08T05:22:50;25.93;;;14.47;;
82632;SDS011;72302;51.444;3.582;2023-09-08T05:25:15;23.10;;;13.30;;
82632;SDS011;72302;51.444;3.582;2023-09-08T05:27:41;25.83;;;14.25;;
82632;SDS011;72302;51.444;3.582;2023-09-08T05:30:06;25.85;;;12.30;;
82632;SDS011;72302;51.444;3.582;2023-09-08T05:32:32;20.42;;;12.63;;
82632;SDS011;72302;51.444;3.582;2023-09-08T05:34:57;19.90;;;12.10;;
82632;SDS011;72302;51.444;3.582;2023-09-08T05:37:22;24.80;;;12.27;;
82632;SDS011;72302;51.444;3.582;2023-09-08T05:39:48;22.20;;;12.00;;
82632;SDS011;72302;51.444;3.582;2023-09-08T05:42:13;25.02;;;12.63;;
82632;SDS011;72302;51.444;3.582;2023-09-08T05:44:38;17.03;;;9.57;;
82632;SDS011;72302;51.444;3.582;2023-09-08T05:47:04;21.52;;;11.27;;
82632;SDS011;72302;51.444;3.582;2023-09-08T05:49:30;24.52;;;13.07;;
82632;SDS011;72302;51.444;3.582;2023-09-08T05:51:55;23.90;;;13.25;;
82632;SDS011;72302;51.444;3.582;2023-09-08T05:54:20;20.30;;;11.77;;
82632;SDS011;72302;51.444;3.582;2023-09-08T05:56:45;25.65;;;13.65;;
82632;SDS011;72302;51.444;3.582;2023-09-08T05:59:11;22.35;;;11.65;;
82632;SDS011;72302;51.444;3.582;2023-09-08T06:01:36;21.75;;;12.48;;
82632;SDS011;72302;51.444;3.582;2023-09-08T06:04:01;20.67;;;11.80;;
82632;SDS011;72302;51.444;3.582;2023-09-08T06:06:27;20.35;;;12.13;;
82632;SDS011;72302;51.444;3.582;2023-09-08T06:08:53;23.27;;;11.32;;
82632;SDS011;72302;51.444;3.582;2023-09-08T06:11:18;20.30;;;11.10;;
82632;SDS011;72302;51.444;3.582;2023-09-08T06:13:44;19.30;;;12.18;;
82632;SDS011;72302;51.444;3.582;2023-09-08T06:16:09;17.23;;;10.93;;
82632;SDS011;72302;51.444;3.582;2023-09-08T06:18:34;17.02;;;10.50;;
82632;SDS011;72302;51.444;3.582;2023-09-08T06:21:05;19.30;;;10.93;;
82632;SDS011;72302;51.444;3.582;2023-09-08T06:23:30;20.60;;;12.07;;
82632;SDS011;72302;51.444;3.582;2023-09-08T06:25:56;19.83;;;12.37;;
82632;SDS011;72302;51.444;3.582;2023-09-08T06:28:24;16.42;;;10.80;;
82632;SDS011;72302;51.444;3.582;2023-09-08T06:30:50;19.75;;;11.68;;
82632;SDS011;72302;51.444;3.582;2023-09-08T06:33:15;15.87;;;10.20;;
82632;SDS011;72302;51.444;3.582;2023-09-08T06:35:40;15.88;;;9.98;;
82632;SDS011;72302;51.444;3.582;2023-09-08T06:38:06;17.63;;;11.23;;
82632;SDS011;72302;51.444;3.582;2023-09-08T06:40:32;16.52;;;9.60;;
82632;SDS011;72302;51.444;3.582;2023-09-08T06:42:57;15.20;;;10.32;;
82632;SDS011;72302;51.444;3.582;2023-09-08T06:45:22;15.63;;;11.07;;
82632;SDS011;72302;51.444;3.582;2023-09-08T06:47:48;17.40;;;10.17;;
82632;SDS011;72302;51.444;3.582;2023-09-08T06:50:15;16.33;;;10.80;;
82632;SDS011;72302;51.444;3.582;2023-09-08T06:52:41;17.73;;;9.82;;
82632;SDS011;72302;51.444;3.582;2023-09-08T06:55:07;16.55;;;10.50;;
82632;SDS011;72302;51.444;3.582;2023-09-08T06:57:32;15.40;;;9.40;;
82632;SDS011;72302;51.444;3.582;2023-09-08T06:59:57;12.95;;;8.18;;
82632;SDS011;72302;51.444;3.582;2023-09-08T07:02:23;15.68;;;9.02;;
82632;SDS011;72302;51.444;3.582;2023-09-08T07:04:48;16.05;;;8.52;;
82632;SDS011;72302;51.444;3.582;2023-09-08T07:07:14;15.35;;;9.32;;
82632;SDS011;72302;51.444;3.582;2023-09-08T07:09:39;15.73;;;10.23;;
82632;SDS011;72302;51.444;3.582;2023-09-08T07:12:04;14.97;;;9.20;;
82632;SDS011;72302;51.444;3.582;2023-09-08T07:16:04;20.08;;;11.95;;
82632;SDS011;72302;51.444;3.582;2023-09-08T07:18:30;16.65;;;10.35;;
82632;SDS011;72302;51.444;3.582;2023-09-08T07:20:59;19.75;;;9.95;;
82632;SDS011;72302;51.444;3.582;2023-09-08T07:23:25;16.03;;;9.97;;
82632;SDS011;72302;51.444;3.582;2023-09-08T07:25:50;17.58;;;9.68;;
82632;SDS011;72302;51.444;3.582;2023-09-08T07:28:15;17.90;;;11.07;;
82632;SDS011;72302;51.444;3.582;2023-09-08T07:30:41;17.92;;;11.32;;
82632;SDS011;72302;51.444;3.582;2023-09-08T07:33:06;14.50;;;10.50;;
82632;SDS011;72302;51.444;3.582;2023-09-08T07:35:32;13.95;;;9.63;;
82632;SDS011;72302;51.444;3.582;2023-09-08T07:37:57;16.48;;;9.73;;
82632;SDS011;72302;51.444;3.582;2023-09-08T07:40:22;16.55;;;10.48;;
82632;SDS011;72302;51.444;3.582;2023-09-08T07:42:47;15.65;;;10.00;;
82632;SDS011;72302;51.444;3.582;2023-09-08T07:45:13;20.13;;;10.50;;
82632;SDS011;72302;51.444;3.582;2023-09-08T07:47:38;15.88;;;9.40;;
82632;SDS011;72302;51.444;3.582;2023-09-08T07:50:16;18.15;;;9.80;;
82632;SDS011;72302;51.444;3.582;2023-09-08T07:52:42;15.90;;;10.05;;
82632;SDS011;72302;51.444;3.582;2023-09-08T07:55:07;16.67;;;10.80;;
82632;SDS011;72302;51.444;3.582;2023-09-08T07:57:32;13.45;;;8.60;;
82632;SDS011;72302;51.444;3.582;2023-09-08T07:59:58;14.30;;;9.02;;
82632;SDS011;72302;51.444;3.582;2023-09-08T08:02:23;18.23;;;9.93;;
82632;SDS011;72302;51.444;3.582;2023-09-08T08:04:49;18.13;;;9.93;;
82632;SDS011;72302;51.444;3.582;2023-09-08T08:07:14;15.45;;;9.95;;
82632;SDS011;72302;51.444;3.582;2023-09-08T08:09:39;15.93;;;10.07;;
82632;SDS011;72302;51.444;3.582;2023-09-08T08:12:05;16.38;;;10.45;;
82632;SDS011;72302;51.444;3.582;2023-09-08T08:14:30;15.75;;;10.05;;
82632;SDS011;72302;51.444;3.582;2023-09-08T08:16:55;20.27;;;10.00;;
82632;SDS011;72302;51.444;3.582;2023-09-08T08:19:21;15.13;;;10.18;;
82632;SDS011;72302;51.444;3.582;2023-09-08T08:21:46;16.08;;;10.13;;
82632;SDS011;72302;51.444;3.582;2023-09-08T08:24:11;16.67;;;10.20;;
82632;SDS011;72302;51.444;3.582;2023-09-08T08:26:37;14.27;;;10.32;;
82632;SDS011;72302;51.444;3.582;2023-09-08T08:29:02;16.67;;;10.60;;
82632;SDS011;72302;51.444;3.582;2023-09-08T08:31:28;17.02;;;9.93;;
82632;SDS011;72302;51.444;3.582;2023-09-08T08:33:53;16.45;;;9.95;;
82632;SDS011;72302;51.444;3.582;2023-09-08T08:36:19;14.77;;;10.10;;
82632;SDS011;72302;51.444;3.582;2023-09-08T08:38:44;15.32;;;10.07;;
82632;SDS011;72302;51.444;3.582;2023-09-08T08:41:09;15.55;;;10.52;;
82632;SDS011;72302;51.444;3.582;2023-09-08T08:43:35;14.43;;;9.93;;
82632;SDS011;72302;51.444;3.582;2023-09-08T08:46:01;15.90;;;10.55;;
82632;SDS011;72302;51.444;3.582;2023-09-08T08:48:27;17.83;;;11.00;;
82632;SDS011;72302;51.444;3.582;2023-09-08T08:50:54;16.65;;;10.90;;
82632;SDS011;72302;51.444;3.582;2023-09-08T08:53:21;17.20;;;10.75;;
82632;SDS011;72302;51.444;3.582;2023-09-08T08:55:47;16.33;;;11.15;;
82632;SDS011;72302;51.444;3.582;2023-09-08T08:58:13;17.80;;;11.50;;
82632;SDS011;72302;51.444;3.582;2023-09-08T09:00:39;16.73;;;10.80;;
82632;SDS011;72302;51.444;3.582;2023-09-08T09:03:05;17.38;;;11.40;;
82632;SDS011;72302;51.444;3.582;2023-09-08T09:05:31;17.35;;;10.80;;
82632;SDS011;72302;51.444;3.582;2023-09-08T09:07:57;20.23;;;11.20;;
82632;SDS011;72302;51.444;3.582;2023-09-08T09:10:22;19.52;;;10.50;;
82632;SDS011;72302;51.444;3.582;2023-09-08T09:12:48;23.77;;;12.27;;
82632;SDS011;72302;51.444;3.582;2023-09-08T09:15:13;15.15;;;10.35;;
82632;SDS011;72302;51.444;3.582;2023-09-08T09:17:38;15.40;;;9.65;;
82632;SDS011;72302;51.444;3.582;2023-09-08T09:20:17;14.48;;;10.15;;
82632;SDS011;72302;51.444;3.582;2023-09-08T09:22:44;18.15;;;10.82;;
82632;SDS011;72302;51.444;3.582;2023-09-08T09:25:20;16.13;;;10.55;;
82632;SDS011;72302;51.444;3.582;2023-09-08T09:30:13;14.52;;;8.93;;
82632;SDS011;72302;51.444;3.582;2023-09-08T09:32:38;16.67;;;11.00;;
82632;SDS011;72302;51.444;3.582;2023-09-08T09:35:04;17.98;;;12.18;;
82632;SDS011;72302;51.444;3.582;2023-09-08T09:37:29;17.73;;;10.70;;
82632;SDS011;72302;51.444;3.582;2023-09-08T09:39:54;16.63;;;10.20;;
82632;SDS011;72302;51.444;3.582;2023-09-08T09:42:20;15.00;;;9.48;;
82632;SDS011;72302;51.444;3.582;2023-09-08T09:44:47;16.52;;;10.60;;
82632;SDS011;72302;51.444;3.582;2023-09-08T09:47:13;19.08;;;11.65;;
82632;SDS011;72302;51.444;3.582;2023-09-08T09:49:42;16.67;;;11.35;;
82632;SDS011;72302;51.444;3.582;2023-09-08T09:52:08;20.33;;;12.02;;
82632;SDS011;72302;51.444;3.582;2023-09-08T09:54:33;17.30;;;10.80;;
82632;SDS011;72302;51.444;3.582;2023-09-08T09:56:58;16.83;;;10.15;;
82632;SDS011;72302;51.444;3.582;2023-09-08T09:59:24;17.38;;;10.95;;
82632;SDS011;72302;51.444;3.582;2023-09-08T10:01:50;17.00;;;11.23;;
82632;SDS011;72302;51.444;3.582;2023-09-08T10:04:16;19.95;;;11.80;;
82632;SDS011;72302;51.444;3.582;2023-09-08T10:06:41;17.42;;;11.15;;
82632;SDS011;72302;51.444;3.582;2023-09-08T10:09:07;17.33;;;11.90;;
82632;SDS011;72302;51.444;3.582;2023-09-08T10:11:47;20.92;;;12.57;;
82632;SDS011;72302;51.444;3.582;2023-09-08T10:14:14;17.20;;;11.55;;
82632;SDS011;72302;51.444;3.582;2023-09-08T10:16:40;20.63;;;12.75;;
82632;SDS011;72302;51.444;3.582;2023-09-08T10:19:10;23.10;;;12.32;;
82632;SDS011;72302;51.444;3.582;2023-09-08T10:22:00;17.52;;;11.63;;
82632;SDS011;72302;51.444;3.582;2023-09-08T10:24:22;20.27;;;13.00;;
82632;SDS011;72302;51.444;3.582;2023-09-08T10:26:51;17.75;;;11.68;;
82632;SDS011;72302;51.444;3.582;2023-09-08T10:29:19;18.23;;;11.77;;
82632;SDS011;72302;51.444;3.582;2023-09-08T10:31:44;18.73;;;12.25;;
82632;SDS011;72302;51.444;3.582;2023-09-08T10:34:10;20.58;;;12.88;;
82632;SDS011;72302;51.444;3.582;2023-09-08T10:36:36;15.77;;;10.98;;
82632;SDS011;72302;51.444;3.582;2023-09-08T10:41:45;21.30;;;12.38;;
82632;SDS011;72302;51.444;3.582;2023-09-08T10:44:11;19.33;;;13.27;;
82632;SDS011;72302;51.444;3.582;2023-09-08T10:46:39;20.15;;;13.07;;
82632;SDS011;72302;51.444;3.582;2023-09-08T10:49:05;23.33;;;13.65;;
82632;SDS011;72302;51.444;3.582;2023-09-08T10:51:35;22.08;;;13.23;;
82632;SDS011;72302;51.444;3.582;2023-09-08T10:54:00;19.83;;;12.13;;
82632;SDS011;72302;51.444;3.582;2023-09-08T10:59:28;20.00;;;11.05;;
82632;SDS011;72302;51.444;3.582;2023-09-08T11:01:54;16.48;;;10.45;;
82632;SDS011;72302;51.444;3.582;2023-09-08T11:04:19;18.92;;;12.38;;
82632;SDS011;72302;51.444;3.582;2023-09-08T11:06:46;18.80;;;12.05;;
82632;SDS011;72302;51.444;3.582;2023-09-08T11:09:11;18.35;;;11.68;;
82632;SDS011;72302;51.444;3.582;2023-09-08T11:11:36;15.53;;;10.43;;
82632;SDS011;72302;51.444;3.582;2023-09-08T11:14:02;19.88;;;11.65;;
82632;SDS011;72302;51.444;3.582;2023-09-08T11:16:27;21.95;;;14.73;;
82632;SDS011;72302;51.444;3.582;2023-09-08T11:18:56;25.30;;;14.65;;
82632;SDS011;72302;51.444;3.582;2023-09-08T11:21:22;23.85;;;12.77;;
82632;SDS011;72302;51.444;3.582;2023-09-08T11:23:48;17.20;;;7.72;;
82632;SDS011;72302;51.444;3.582;2023-09-08T11:26:13;21.88;;;13.38;;
82632;SDS011;72302;51.444;3.582;2023-09-08T11:28:38;16.80;;;8.10;;
82632;SDS011;72302;51.444;3.582;2023-09-08T11:31:04;20.15;;;11.75;;
82632;SDS011;72302;51.444;3.582;2023-09-08T11:33:32;19.50;;;11.35;;
82632;SDS011;72302;51.444;3.582;2023-09-08T11:35:58;26.77;;;16.00;;
82632;SDS011;72302;51.444;3.582;2023-09-08T11:38:26;27.43;;;16.33;;
82632;SDS011;72302;51.444;3.582;2023-09-08T11:40:57;28.80;;;17.13;;
82632;SDS011;72302;51.444;3.582;2023-09-08T11:43:22;27.67;;;16.80;;
82632;SDS011;72302;51.444;3.582;2023-09-08T11:45:48;27.92;;;18.20;;
82632;SDS011;72302;51.444;3.582;2023-09-08T11:48:13;29.45;;;18.65;;
82632;SDS011;72302;51.444;3.582;2023-09-08T11:50:40;35.35;;;21.63;;
82632;SDS011;72302;51.444;3.582;2023-09-08T11:53:06;44.35;;;22.48;;
82632;SDS011;72302;51.444;3.582;2023-09-08T11:55:32;35.60;;;22.50;;
82632;SDS011;72302;51.444;3.582;2023-09-08T11:57:57;35.20;;;21.95;;
82632;SDS011;72302;51.444;3.582;2023-09-08T12:00:23;38.40;;;22.25;;
82632;SDS011;72302;51.444;3.582;2023-09-08T12:02:49;41.42;;;25.42;;
82632;SDS011;72302;51.444;3.582;2023-09-08T12:05:24;38.83;;;23.45;;
82632;SDS011;72302;51.444;3.582;2023-09-08T12:07:54;42.20;;;24.15;;
82632;SDS011;72302;51.444;3.582;2023-09-08T12:10:20;39.25;;;23.67;;
82632;SDS011;72302;51.444;3.582;2023-09-08T12:12:49;44.35;;;24.90;;
82632;SDS011;72302;51.444;3.582;2023-09-08T12:17:59;45.28;;;26.00;;
82632;SDS011;72302;51.444;3.582;2023-09-08T12:20:24;46.00;;;27.65;;
82632;SDS011;72302;51.444;3.582;2023-09-08T12:22:50;46.97;;;26.40;;
82632;SDS011;72302;51.444;3.582;2023-09-08T12:25:18;40.40;;;23.27;;
82632;SDS011;72302;51.444;3.582;2023-09-08T12:27:48;46.28;;;26.23;;
82632;SDS011;72302;51.444;3.582;2023-09-08T12:32:39;11.03;;;5.83;;
82632;SDS011;72302;51.444;3.582;2023-09-08T12:35:05;35.22;;;18.95;;
82632;SDS011;72302;51.444;3.582;2023-09-08T12:37:32;23.77;;;12.23;;
82632;SDS011;72302;51.444;3.582;2023-09-08T12:39:57;17.23;;;9.70;;
82632;SDS011;72302;51.444;3.582;2023-09-08T12:42:23;22.77;;;13.93;;
82632;SDS011;72302;51.444;3.582;2023-09-08T12:44:53;23.90;;;14.00;;
82632;SDS011;72302;51.444;3.582;2023-09-08T12:47:19;9.63;;;6.60;;
82632;SDS011;72302;51.444;3.582;2023-09-08T12:49:44;13.13;;;7.35;;
82632;SDS011;72302;51.444;3.582;2023-09-08T12:52:09;8.47;;;3.87;;
82632;SDS011;72302;51.444;3.582;2023-09-08T12:54:35;12.63;;;5.85;;
82632;SDS011;72302;51.444;3.582;2023-09-08T12:57:00;9.57;;;5.28;;
82632;SDS011;72302;51.444;3.582;2023-09-08T12:59:25;22.98;;;9.68;;
82632;SDS011;72302;51.444;3.582;2023-09-08T13:01:51;24.57;;;13.17;;
82632;SDS011;72302;51.444;3.582;2023-09-08T13:04:16;29.23;;;12.60;;
82632;SDS011;72302;51.444;3.582;2023-09-08T13:06:41;12.68;;;6.90;;
82632;SDS011;72302;51.444;3.582;2023-09-08T13:09:07;10.43;;;5.00;;
82632;SDS011;72302;51.444;3.582;2023-09-08T13:11:33;7.32;;;4.45;;
82632;SDS011;72302;51.444;3.582;2023-09-08T13:13:59;36.17;;;17.10;;
82632;SDS011;72302;51.444;3.582;2023-09-08T13:16:24;10.07;;;4.63;;
82632;SDS011;72302;51.444;3.582;2023-09-08T13:18:49;10.18;;;5.03;;
82632;SDS011;72302;51.444;3.582;2023-09-08T13:21:14;12.85;;;7.50;;
82632;SDS011;72302;51.444;3.582;2023-09-08T13:23:40;7.70;;;4.00;;
82632;SDS011;72302;51.444;3.582;2023-09-08T13:26:05;16.47;;;8.17;;
82632;SDS011;72302;51.444;3.582;2023-09-08T13:28:30;31.17;;;15.53;;
82632;SDS011;72302;51.444;3.582;2023-09-08T13:30:55;35.43;;;18.47;;
82632;SDS011;72302;51.444;3.582;2023-09-08T13:33:21;31.92;;;17.92;;
82632;SDS011;72302;51.444;3.582;2023-09-08T13:35:47;21.90;;;12.25;;
82632;SDS011;72302;51.444;3.582;2023-09-08T13:38:12;11.70;;;6.37;;
82632;SDS011;72302;51.444;3.582;2023-09-08T13:40:37;34.55;;;19.05;;
82632;SDS011;72302;51.444;3.582;2023-09-08T13:43:03;28.80;;;16.38;;
82632;SDS011;72302;51.444;3.582;2023-09-08T13:45:28;11.05;;;5.18;;
82632;SDS011;72302;51.444;3.582;2023-09-08T13:47:53;15.32;;;8.02;;
82632;SDS011;72302;51.444;3.582;2023-09-08T13:50:18;25.63;;;13.23;;
82632;SDS011;72302;51.444;3.582;2023-09-08T13:52:44;15.93;;;8.25;;
82632;SDS011;72302;51.444;3.582;2023-09-08T13:55:09;26.77;;;12.50;;
82632;SDS011;72302;51.444;3.582;2023-09-08T13:57:35;7.03;;;3.35;;
82632;SDS011;72302;51.444;3.582;2023-09-08T14:00:00;18.63;;;11.40;;
82632;SDS011;72302;51.444;3.582;2023-09-08T14:02:26;15.98;;;8.93;;
82632;SDS011;72302;51.444;3.582;2023-09-08T14:04:51;24.90;;;12.55;;
82632;SDS011;72302;51.444;3.582;2023-09-08T14:07:16;26.85;;;13.95;;
82632;SDS011;72302;51.444;3.582;2023-09-08T14:09:41;18.50;;;7.75;;
82632;SDS011;72302;51.444;3.582;2023-09-08T14:12:07;10.07;;;5.20;;
82632;SDS011;72302;51.444;3.582;2023-09-08T14:14:32;18.17;;;10.15;;
82632;SDS011;72302;51.444;3.582;2023-09-08T14:16:57;16.63;;;8.93;;
82632;SDS011;72302;51.444;3.582;2023-09-08T14:19:22;10.63;;;6.43;;
82632;SDS011;72302;51.444;3.582;2023-09-08T14:21:48;5.65;;;3.22;;
82632;SDS011;72302;51.444;3.582;2023-09-08T14:24:13;19.70;;;10.93;;
82632;SDS011;72302;51.444;3.582;2023-09-08T14:26:40;16.25;;;8.55;;
82632;SDS011;72302;51.444;3.582;2023-09-08T14:29:05;28.08;;;14.43;;
82632;SDS011;72302;51.444;3.582;2023-09-08T14:31:30;10.53;;;6.20;;
82632;SDS011;72302;51.444;3.582;2023-09-08T14:33:57;22.92;;;14.10;;
82632;SDS011;72302;51.444;3.582;2023-09-08T14:36:22;8.23;;;5.63;;
82632;SDS011;72302;51.444;3.582;2023-09-08T14:38:47;19.95;;;9.88;;